Time;durP1;ratioP1;P1;durP2;ratioP2;P2;SDS_P1;SDS_P2;PMS_P1;PMS_P2;Temp;Humidity;BMP_temperature;BMP_pressure;BME280_temperature;BME280_humidity;BME280_pressure;Samples;Min_cycle;Max_cycle;Signal;HPM_P1;HPM_P2
2021/05/11 00:07:36;;;;;;;0.20;0.10;;;17.20;99.90;;;;;;20945288;28;20221;-76
2021/05/11 00:17:40;;;;;;;0.37;0.30;;;17.30;99.90;;;;;;20942819;28;20252;-75
2021/05/11 00:27:43;;;;;;;0.20;0.10;;;16.70;99.90;;;;;;20942215;28;20566;-75
2021/05/11 00:37:46;;;;;;;0.20;0.00;;;16.60;99.90;;;;;;20938879;28;20564;-76
2021/05/11 00:47:49;;;;;;;0.20;0.00;;;16.60;99.90;;;;;;20941005;28;20211;-74
2021/05/11 00:57:52;;;;;;;0.20;0.00;;;16.40;99.90;;;;;;20938753;28;20264;-76
2021/05/11 01:07:56;;;;;;;0.20;0.10;;;16.30;99.90;;;;;;20940434;28;20614;-73
2021/05/11 01:18:01;;;;;;;0.20;0.10;;;15.90;99.90;;;;;;20938015;28;20216;-76
2021/05/11 01:28:13;;;;;;;0.20;0.10;;;15.30;99.90;;;;;;20938668;28;20204;-75
2021/05/11 01:48:47;;;;;;;0.53;0.47;;;14.90;99.90;;;;;;20914516;28;20653;-76
2021/05/11 01:59:14;;;;;;;0.20;0.00;;;15.00;99.90;;;;;;20951920;28;20246;-76
2021/05/11 02:30:00;;;;;;;0.20;0.00;;;14.70;99.90;;;;;;20868484;28;20637;-75
2021/05/11 02:40:04;;;;;;;0.20;0.07;;;14.20;99.90;;;;;;20940675;28;20195;-75
2021/05/11 02:50:08;;;;;;;0.20;0.00;;;14.20;99.90;;;;;;20949890;28;20255;-74
2021/05/11 03:00:13;;;;;;;0.20;0.20;;;13.80;99.90;;;;;;20946446;28;20284;-73
2021/05/11 03:10:18;;;;;;;1.40;0.60;;;13.50;99.90;;;;;;20947793;28;20259;-73
2021/05/11 03:20:21;;;;;;;0.20;0.10;;;13.50;99.90;;;;;;20945087;28;20197;-73
2021/05/11 03:30:24;;;;;;;0.73;0.40;;;13.40;99.90;;;;;;20953351;28;20779;-76
2021/05/11 03:40:31;;;;;;;0.20;0.10;;;13.20;99.90;;;;;;20942495;28;20189;-74
2021/05/11 03:50:35;;;;;;;0.97;0.77;;;13.30;99.90;;;;;;20944977;28;20224;-75
2021/05/11 04:00:38;;;;;;;0.27;0.27;;;13.50;99.90;;;;;;20944188;22;20313;-71
2021/05/11 04:10:45;;;;;;;0.20;0.20;;;13.10;99.90;;;;;;20861352;28;20225;-72
2021/05/11 04:20:48;;;;;;;0.20;0.10;;;13.30;99.90;;;;;;20857556;28;20197;-71
2021/05/11 04:30:53;;;;;;;16.27;0.73;;;13.20;99.90;;;;;;20839780;28;20221;-72
2021/05/11 04:40:57;;;;;;;0.20;0.10;;;13.40;99.90;;;;;;20856942;28;20216;-72
2021/05/11 04:51:01;;;;;;;0.20;0.10;;;14.20;99.90;;;;;;20857517;28;20225;-73
2021/05/11 05:01:04;;;;;;;0.20;0.10;;;14.30;99.90;;;;;;20855476;28;20278;-73
2021/05/11 05:11:08;;;;;;;0.20;0.10;;;14.30;99.90;;;;;;20855294;28;20225;-73
2021/05/11 05:21:13;;;;;;;0.20;0.10;;;14.50;99.90;;;;;;20854804;28;20345;-72
2021/05/11 05:31:17;;;;;;;0.20;0.10;;;15.00;99.90;;;;;;20849156;28;20903;-72
2021/05/11 05:41:22;;;;;;;0.20;0.10;;;15.30;99.90;;;;;;20867898;28;20307;-70
2021/05/11 05:51:27;;;;;;;0.23;0.13;;;15.40;99.90;;;;;;20867568;28;20225;-70
2021/05/11 06:01:30;;;;;;;0.20;0.00;;;15.70;99.90;;;;;;20866958;28;20231;-74
2021/05/11 06:11:41;;;;;;;0.20;0.10;;;16.00;99.90;;;;;;20861833;28;20229;-70
2021/05/11 06:21:45;;;;;;;0.20;0.20;;;16.40;99.90;;;;;;20867180;28;20197;-69
2021/05/11 06:31:49;;;;;;;1.90;0.43;;;16.40;99.90;;;;;;20863592;28;20727;-71
2021/05/11 06:41:54;;;;;;;0.43;0.30;;;16.50;99.90;;;;;;20863178;28;20186;-70
2021/05/11 07:02:19;;;;;;;0.20;0.20;;;17.10;99.90;;;;;;20843081;28;20307;-73
2021/05/11 07:22:47;;;;;;;0.93;0.43;;;17.30;99.90;;;;;;20860738;28;20595;-73
2021/05/11 07:32:51;;;;;;;2.20;0.30;;;17.50;99.90;;;;;;20857894;28;20243;-69
2021/05/11 07:42:54;;;;;;;0.20;0.10;;;17.50;99.90;;;;;;20857750;28;20529;-70
2021/05/11 08:34:40;;;;;;;0.20;0.10;;;17.40;99.90;;;;;;20784751;28;20524;-69
2021/05/11 08:44:43;;;;;;;0.20;0.10;;;17.40;99.90;;;;;;20771331;28;20221;-67
2021/05/11 08:55:03;;;;;;;0.20;0.10;;;17.20;99.90;;;;;;20771236;28;20229;-68
2021/05/11 09:05:19;;;;;;;0.50;0.30;;;17.20;99.90;;;;;;20821681;28;20581;-70
2021/05/11 09:25:55;;;;;;;0.53;0.53;;;17.90;99.90;;;;;;20852229;28;20979;-70
2021/05/11 09:56:51;;;;;;;0.20;0.10;;;20.30;99.90;;;;;;20850455;28;20221;-69
2021/05/11 10:39:14;;;;;;;1.23;0.40;;;19.50;99.90;;;;;;20865916;28;20304;-67
2021/05/11 10:49:26;;;;;;;5.60;0.40;;;20.30;99.90;;;;;;20865105;28;20216;-71
2021/05/11 10:59:59;;;;;;;0.20;0.10;;;20.00;99.90;;;;;;20863767;28;20251;-70
2021/05/11 11:10:06;;;;;;;0.30;0.27;;;21.90;99.90;;;;;;20862862;28;20222;-73
2021/05/11 11:20:13;;;;;;;0.20;0.10;;;22.30;99.90;;;;;;20863645;28;20822;-71
2021/05/11 11:30:18;;;;;;;0.40;0.40;;;23.60;99.90;;;;;;20843420;28;20224;-69
2021/05/11 11:40:22;;;;;;;0.30;0.30;;;22.20;99.90;;;;;;20859630;28;20279;-69
2021/05/11 11:50:25;;;;;;;0.85;0.38;;;23.30;99.90;;;;;;20857786;28;20229;-71
2021/05/11 12:00:32;;;;;;;0.60;0.30;;;24.60;99.90;;;;;;20858875;28;20217;-71
2021/05/11 12:10:38;;;;;;;0.57;0.57;;;24.00;99.90;;;;;;20855574;28;20518;-73
2021/05/11 12:20:43;;;;;;;1.00;0.88;;;24.60;99.90;;;;;;20855200;28;20339;-69
2021/05/11 12:30:48;;;;;;;0.20;0.10;;;24.70;99.90;;;;;;20833470;28;20223;-68
2021/05/11 12:41:01;;;;;;;1.85;0.43;;;23.60;99.90;;;;;;20853012;28;20207;-69
2021/05/11 12:51:05;;;;;;;0.28;0.20;;;24.40;99.90;;;;;;20854523;28;20308;-67
2021/05/11 13:01:29;;;;;;;0.30;0.20;;;22.80;99.90;;;;;;20853408;28;20672;-69
2021/05/11 13:22:18;;;;;;;0.22;0.20;;;24.80;99.90;;;;;;20846322;28;20649;-67
2021/05/11 13:32:27;;;;;;;0.20;0.20;;;23.60;99.90;;;;;;20835517;28;20239;-68
2021/05/11 13:42:31;;;;;;;1.27;0.90;;;22.20;99.90;;;;;;20833229;28;20201;-67
2021/05/11 13:52:34;;;;;;;0.50;0.20;;;23.10;99.90;;;;;;20865857;28;20438;-69
2021/05/11 14:02:50;;;;;;;0.50;0.30;;;23.30;99.90;;;;;;20867401;28;20654;-69
2021/05/11 14:12:54;;;;;;;1.63;0.52;;;22.90;99.90;;;;;;20848317;28;20217;-68
2021/05/11 14:22:58;;;;;;;0.20;0.10;;;21.80;99.90;;;;;;20867487;28;20221;-69
2021/05/11 14:33:01;;;;;;;0.20;0.20;;;21.60;99.90;;;;;;20864667;28;20232;-68
2021/05/11 14:43:05;;;;;;;0.20;0.10;;;21.30;99.90;;;;;;20864673;28;20267;-67
2021/05/11 14:53:08;;;;;;;0.20;0.13;;;24.40;99.90;;;;;;20859983;28;20298;-69
2021/05/11 15:03:13;;;;;;;0.20;0.10;;;21.20;99.90;;;;;;20863128;28;20314;-69
2021/05/11 15:13:18;;;;;;;0.20;0.10;;;19.20;99.90;;;;;;20859184;28;20685;-69
2021/05/11 15:23:22;;;;;;;0.20;0.10;;;19.00;99.90;;;;;;20860207;28;20201;-68
2021/05/11 15:33:25;;;;;;;0.20;0.10;;;18.60;99.90;;;;;;20857622;28;20229;-69
2021/05/11 15:43:29;;;;;;;1.40;1.27;;;19.70;99.90;;;;;;20859474;28;20211;-68
2021/05/11 15:53:32;;;;;;;0.20;0.00;;;18.90;99.90;;;;;;20856043;28;20226;-66
2021/05/11 16:03:37;;;;;;;1.03;0.20;;;22.20;99.90;;;;;;20857330;28;20233;-68
2021/05/11 16:13:40;;;;;;;0.20;0.10;;;22.80;99.90;;;;;;20836542;28;20210;-66
2021/05/11 16:23:45;;;;;;;0.60;0.30;;;22.10;99.90;;;;;;20855404;28;20229;-67
2021/05/11 16:33:49;;;;;;;0.20;0.10;;;21.70;99.90;;;;;;20855203;28;20227;-66
2021/05/11 16:43:56;;;;;;;0.20;0.20;;;20.70;99.90;;;;;;20855563;28;20952;-66
2021/05/11 16:53:59;;;;;;;0.20;0.10;;;19.40;99.90;;;;;;20833487;28;20312;-68
2021/05/11 17:04:04;;;;;;;0.20;0.10;;;18.60;99.90;;;;;;20834453;28;20224;-70
2021/05/11 17:14:10;;;;;;;4.27;0.57;;;20.50;99.90;;;;;;20851040;28;20261;-68
2021/05/11 17:24:15;;;;;;;0.40;0.37;;;22.60;99.90;;;;;;20853437;28;20197;-68
2021/05/11 17:34:18;;;;;;;0.20;0.03;;;23.30;99.90;;;;;;20835719;28;20229;-67
2021/05/11 17:44:22;;;;;;;0.30;0.30;;;23.50;99.90;;;;;;20851208;28;20201;-67
2021/05/11 17:54:27;;;;;;;0.23;0.07;;;22.20;99.90;;;;;;20853616;28;20693;-68
2021/05/11 18:04:32;;;;;;;0.20;0.10;;;21.50;99.90;;;;;;20851095;28;20523;-69
2021/05/11 18:14:35;;;;;;;0.20;0.20;;;19.20;99.90;;;;;;20834562;28;20336;-68
2021/05/11 18:24:39;;;;;;;0.20;0.10;;;18.80;99.90;;;;;;20851178;28;20252;-68
2021/05/11 18:34:42;;;;;;;1.07;0.27;;;18.70;99.90;;;;;;20854332;28;20657;-68
2021/05/11 18:44:47;;;;;;;0.23;0.20;;;18.10;99.90;;;;;;20866459;28;20541;-65
2021/05/11 18:54:52;;;;;;;0.20;0.10;;;17.70;99.90;;;;;;20865156;28;20414;-69
2021/05/11 19:04:56;;;;;;;0.20;0.00;;;17.50;99.90;;;;;;20863177;28;20224;-68
2021/05/11 19:14:59;;;;;;;0.20;0.10;;;17.20;99.90;;;;;;20864436;28;20229;-67
2021/05/11 19:25:04;;;;;;;0.20;0.00;;;17.00;99.90;;;;;;20843088;28;20193;-68
2021/05/11 19:35:09;;;;;;;1.20;0.50;;;16.60;99.90;;;;;;20861470;28;20257;-67
2021/05/11 19:45:14;;;;;;;0.30;0.20;;;16.50;99.90;;;;;;20859757;28;20201;-68
2021/05/11 19:55:17;;;;;;;0.20;0.10;;;16.40;99.90;;;;;;20862212;28;20988;-68
2021/05/11 20:05:26;;;;;;;0.40;0.20;;;15.70;99.90;;;;;;20859133;28;20235;-68
2021/05/11 20:15:30;;;;;;;0.20;0.17;;;15.00;99.90;;;;;;20859369;28;20573;-68
2021/05/11 20:25:39;;;;;;;0.20;0.10;;;14.70;99.90;;;;;;20859516;28;20190;-70
2021/05/11 20:35:48;;;;;;;0.50;0.30;;;14.60;99.90;;;;;;20855278;28;20320;-70
2021/05/11 20:45:51;;;;;;;0.33;0.33;;;14.30;99.90;;;;;;20858597;28;20719;-69
2021/05/11 20:55:54;;;;;;;0.20;0.10;;;14.10;99.90;;;;;;20855115;28;20221;-69
2021/05/11 21:05:59;;;;;;;0.43;0.30;;;14.00;99.90;;;;;;20856401;28;20548;-69
2021/05/11 21:16:02;;;;;;;0.97;0.40;;;13.90;99.90;;;;;;20856184;28;20570;-69
2021/05/11 21:26:06;;;;;;;0.20;0.10;;;13.60;99.90;;;;;;20837220;28;20499;-69
2021/05/11 21:36:09;;;;;;;0.20;0.00;;;13.50;99.90;;;;;;20852521;28;20221;-70
2021/05/11 21:46:13;;;;;;;0.63;0.50;;;13.20;99.90;;;;;;20854485;28;20848;-70
2021/05/11 21:56:16;;;;;;;0.20;0.10;;;13.10;99.90;;;;;;20852431;28;20232;-70
2021/05/11 22:06:20;;;;;;;0.27;0.23;;;13.10;99.90;;;;;;20853062;28;20654;-69
2021/05/11 22:16:30;;;;;;;0.20;0.20;;;13.10;99.90;;;;;;20868858;28;20225;-69
2021/05/11 22:26:35;;;;;;;1.53;0.40;;;13.10;99.90;;;;;;20867103;28;20196;-69
2021/05/11 22:36:38;;;;;;;0.20;0.10;;;13.00;99.90;;;;;;20849187;28;20286;-69
2021/05/11 22:46:42;;;;;;;0.73;0.40;;;13.00;99.90;;;;;;20867186;28;20237;-69
2021/05/11 22:56:45;;;;;;;0.20;0.10;;;12.80;99.90;;;;;;20865228;28;20616;-69
2021/05/11 23:06:50;;;;;;;2.77;0.53;;;12.70;99.90;;;;;;20863826;28;20621;-68
2021/05/11 23:16:57;;;;;;;0.50;0.40;;;12.70;99.90;;;;;;20848025;28;20221;-68
2021/05/11 23:27:01;;;;;;;0.43;0.30;;;12.70;99.90;;;;;;20842685;28;20197;-69
2021/05/11 23:37:04;;;;;;;0.20;0.07;;;12.60;99.90;;;;;;20862952;28;20746;-68
2021/05/11 23:47:08;;;;;;;0.20;0.10;;;12.50;99.90;;;;;;20861454;28;20205;-70
2021/05/11 23:57:11;;;;;;;0.20;0.07;;;12.50;99.90;;;;;;20860091;28;20335;-70
